createdAt,value
2022-10-01T00:03:56.867Z,1002.494
2022-10-01T00:09:09.124Z,1002.464
2022-10-01T00:14:21.432Z,1002.379
2022-10-01T00:19:33.675Z,1002.384
2022-10-01T00:24:46.399Z,1002.394
2022-10-01T00:29:58.716Z,1002.351
2022-10-01T00:35:10.895Z,1002.321
2022-10-01T00:40:23.156Z,1002.275
2022-10-01T00:45:35.464Z,1002.167
2022-10-01T00:50:47.803Z,1002.09
2022-10-01T00:56:00.273Z,1002.081
2022-10-01T01:01:12.699Z,1002.095
2022-10-01T01:06:24.979Z,1002.177
2022-10-01T01:11:37.198Z,1002.096
2022-10-01T01:16:49.434Z,1002.029
2022-10-01T01:22:01.852Z,1002.021
2022-10-01T01:27:14.185Z,1001.971
2022-10-01T01:32:26.597Z,1001.929
2022-10-01T01:37:38.990Z,1001.795
2022-10-01T01:42:51.382Z,1001.737
2022-10-01T01:48:03.508Z,1001.632
2022-10-01T01:53:15.865Z,1001.688
2022-10-01T01:58:28.075Z,1001.582
2022-10-01T02:03:40.242Z,1001.615
2022-10-01T02:08:52.643Z,1001.62
2022-10-01T02:14:04.850Z,1001.602
2022-10-01T02:19:17.118Z,1001.552
2022-10-01T02:24:29.325Z,1001.541
2022-10-01T02:29:41.611Z,1001.586
2022-10-01T02:34:53.939Z,1001.59
2022-10-01T02:40:06.110Z,1001.52
2022-10-01T02:45:18.406Z,1001.595
2022-10-01T02:50:30.751Z,1001.451
2022-10-01T02:55:43.151Z,1001.45
2022-10-01T03:00:55.457Z,1001.397
2022-10-01T03:06:07.885Z,1001.442
2022-10-01T03:11:20.128Z,1001.292
2022-10-01T03:16:32.242Z,1001.259
2022-10-01T03:21:44.656Z,1001.176
2022-10-01T03:26:56.838Z,1001.147
2022-10-01T03:32:09.230Z,1001.088
2022-10-01T03:37:21.506Z,1001.009
2022-10-01T03:42:33.747Z,1000.924
2022-10-01T03:47:45.988Z,1000.825
2022-10-01T03:52:58.284Z,1000.819
2022-10-01T03:58:10.623Z,1000.863
2022-10-01T04:03:23.255Z,1000.8
2022-10-01T04:08:35.561Z,1000.869
2022-10-01T04:13:47.966Z,1000.781
2022-10-01T04:19:00.218Z,1000.697
2022-10-01T04:30:40.035Z,1000.617
2022-10-01T04:35:52.356Z,1000.601
2022-10-01T04:41:04.496Z,1000.613
2022-10-01T04:46:16.910Z,1000.558
2022-10-01T04:51:29.414Z,1000.58
2022-10-01T04:56:41.737Z,1000.542
2022-10-01T05:01:54.081Z,1000.46
2022-10-01T05:07:06.484Z,1000.455
2022-10-01T05:12:22.414Z,1000.362
2022-10-01T05:17:31.184Z,1000.389
2022-10-01T05:22:43.387Z,1000.351
2022-10-01T05:27:55.826Z,1000.314
2022-10-01T05:33:08.208Z,1000.263
2022-10-01T05:38:20.475Z,1000.215
2022-10-01T05:43:32.740Z,1000.194
2022-10-01T05:48:45.082Z,1000.142
2022-10-01T05:53:57.493Z,1000.065
2022-10-01T05:59:09.830Z,999.9512
2022-10-01T06:04:22.249Z,999.7824
2022-10-01T06:09:34.622Z,999.7264
2022-10-01T06:14:47.011Z,999.7073
2022-10-01T06:19:59.338Z,999.6342
2022-10-01T06:25:11.746Z,999.6519
2022-10-01T06:30:24.276Z,999.5119
2022-10-01T06:35:36.699Z,999.6275
2022-10-01T06:40:49.057Z,999.4476
2022-10-01T06:46:01.307Z,999.5428
2022-10-01T06:51:13.571Z,999.2924
2022-10-01T06:56:26.017Z,999.2054
2022-10-01T07:01:38.728Z,999.1331
2022-10-01T07:06:50.814Z,999.1905
2022-10-01T07:12:03.648Z,999.1284
2022-10-01T07:17:15.931Z,999.0653
2022-10-01T07:22:28.280Z,998.9136
2022-10-01T07:27:40.587Z,998.8539
2022-10-01T07:32:52.854Z,998.7224
2022-10-01T07:38:05.173Z,998.6501
2022-10-01T07:43:18.161Z,998.7343
2022-10-01T07:48:30.306Z,998.6028
2022-10-01T07:53:42.783Z,998.6061
2022-10-01T07:58:55.145Z,998.4412
2022-10-01T08:04:07.725Z,998.4174
2022-10-01T08:09:20.472Z,998.3074
2022-10-01T08:14:32.912Z,998.324
2022-10-01T08:19:45.205Z,998.199
2022-10-01T08:24:57.546Z,998.233
2022-10-01T08:30:09.991Z,998.1575
2022-10-01T08:35:22.287Z,998.1476
2022-10-01T08:40:34.774Z,998.1479
2022-10-01T08:45:47.101Z,998.0677
2022-10-01T08:50:59.443Z,997.9822
2022-10-01T08:56:11.765Z,997.9631
2022-10-01T09:01:24.264Z,997.8742
2022-10-01T09:06:36.434Z,997.7662
2022-10-01T09:11:48.643Z,997.6174
2022-10-01T09:17:01.108Z,997.566
2022-10-01T09:22:13.600Z,997.4971
2022-10-01T09:27:25.803Z,997.3421
2022-10-01T09:32:38.142Z,997.8911
2022-10-01T09:37:50.776Z,997.4167
2022-10-01T09:43:03.040Z,997.2964
2022-10-01T09:48:15.430Z,997.2087
2022-10-01T09:53:27.841Z,996.9363
2022-10-01T09:58:39.933Z,997.0421
2022-10-01T10:03:52.364Z,996.9056
2022-10-01T10:09:04.566Z,996.9796
2022-10-01T10:14:16.960Z,996.9253
2022-10-01T10:19:29.178Z,997.1479
2022-10-01T10:24:41.466Z,996.9308
2022-10-01T10:29:53.878Z,996.859
2022-10-01T10:35:06.268Z,996.7869
2022-10-01T10:40:18.551Z,996.8822
2022-10-01T10:45:30.760Z,996.5873
2022-10-01T10:50:43.236Z,996.6209
2022-10-01T10:55:55.610Z,996.5321
2022-10-01T11:01:07.324Z,996.5977
2022-10-01T11:06:19.668Z,996.5824
2022-10-01T11:11:31.804Z,996.5466
2022-10-01T11:16:44.216Z,996.4815
2022-10-01T11:21:56.554Z,996.45
2022-10-01T11:27:08.951Z,996.3741
2022-10-01T11:32:21.173Z,996.4272
2022-10-01T11:37:33.516Z,996.5262
2022-10-01T11:42:45.718Z,996.3432
2022-10-01T11:47:58.457Z,996.1592
2022-10-01T11:53:10.625Z,996.4
2022-10-01T11:58:22.876Z,996.2858
2022-10-01T12:03:35.094Z,996.2911
2022-10-01T12:08:47.204Z,996.2494
2022-10-01T12:13:59.533Z,996.2966
2022-10-01T12:19:12.225Z,996.2289
2022-10-01T12:24:24.638Z,996.2439
2022-10-01T12:29:37.133Z,996.2692
2022-10-01T12:34:53.951Z,996.1582
2022-10-01T12:40:01.713Z,996.1592
2022-10-01T12:45:13.885Z,996.2134
2022-10-01T12:50:26.193Z,996.1306
2022-10-01T12:55:38.288Z,996.1078
2022-10-01T13:00:50.825Z,996.0287
2022-10-01T13:06:03.344Z,996.0804
2022-10-01T13:11:16.031Z,996.0745
2022-10-01T13:16:28.247Z,996.1046
2022-10-01T13:21:40.501Z,996.1694
2022-10-01T13:26:52.850Z,996.1326
2022-10-01T13:32:05.122Z,996.1106
2022-10-01T13:37:17.381Z,996.0383
2022-10-01T13:42:29.873Z,996.0836
2022-10-01T13:47:42.081Z,996.1407
2022-10-01T13:52:54.383Z,996.182
2022-10-01T13:58:06.941Z,996.0778
2022-10-01T14:03:19.245Z,996.0922
2022-10-01T14:08:31.657Z,996.1348
2022-10-01T14:13:44.135Z,996.0391
2022-10-01T14:18:56.543Z,996.0165
2022-10-01T14:24:09.256Z,996.0683
2022-10-01T14:29:21.491Z,995.9612
2022-10-01T14:34:34.481Z,996.0666
2022-10-01T14:39:46.870Z,995.915
2022-10-01T14:44:59.189Z,995.9916
2022-10-01T14:50:11.485Z,995.9103
2022-10-01T14:55:23.930Z,995.9012
2022-10-01T15:00:36.387Z,995.9325
2022-10-01T15:05:48.881Z,995.9758
2022-10-01T15:11:01.309Z,996.0178
2022-10-01T15:16:13.627Z,996.0039
2022-10-01T15:21:25.917Z,996.051
2022-10-01T15:26:38.134Z,996.1334
2022-10-01T15:37:03.022Z,996.1771
2022-10-01T15:42:15.433Z,996.2097
2022-10-01T15:47:27.961Z,996.2162
2022-10-01T15:52:40.610Z,996.1672
2022-10-01T15:57:52.911Z,996.1789
2022-10-01T16:03:05.388Z,996.2405
2022-10-01T16:08:18.091Z,996.2692
2022-10-01T16:13:30.306Z,996.3159
2022-10-01T16:18:42.413Z,996.3444
2022-10-01T16:23:54.852Z,996.4858
2022-10-01T16:29:07.058Z,996.4344
2022-10-01T16:34:19.379Z,996.5059
2022-10-01T16:39:31.719Z,996.4969
2022-10-01T16:44:44.148Z,996.6286
2022-10-01T16:49:56.450Z,996.6454
2022-10-01T16:55:08.726Z,996.7368
2022-10-01T17:00:20.861Z,996.7303
2022-10-01T17:05:33.408Z,996.7244
2022-10-01T17:10:45.541Z,996.7825
2022-10-01T17:15:57.946Z,996.7603
2022-10-01T17:21:10.193Z,996.753
2022-10-01T17:26:22.576Z,996.7011
2022-10-01T17:31:34.784Z,996.7228
2022-10-01T17:36:47.166Z,996.6872
2022-10-01T17:41:59.537Z,996.7507
2022-10-01T17:47:11.900Z,996.747
2022-10-01T17:52:24.250Z,996.8251
2022-10-01T17:57:36.386Z,996.8792
2022-10-01T18:02:48.738Z,996.9039
2022-10-01T18:08:01.009Z,997.0815
2022-10-01T18:13:13.335Z,997.1911
2022-10-01T18:19:46.051Z,997.2145
2022-10-01T18:23:38.155Z,997.2527
2022-10-01T18:28:50.733Z,997.468
2022-10-01T18:34:02.805Z,997.5072
2022-10-01T18:39:15.234Z,997.6456
2022-10-01T18:44:27.578Z,997.913
2022-10-01T18:49:39.810Z,997.8159
2022-10-01T18:54:52.104Z,997.9817
2022-10-01T19:00:04.250Z,998.0006
2022-10-01T19:05:16.561Z,998.211
2022-10-01T19:10:28.763Z,998.3606
2022-10-01T19:15:41.005Z,998.3851
2022-10-01T19:20:53.207Z,998.4379
2022-10-01T19:26:05.370Z,998.6707
2022-10-01T19:31:17.939Z,998.556
2022-10-01T19:36:33.706Z,998.8088
2022-10-01T19:41:42.414Z,998.7625
2022-10-01T19:46:54.706Z,998.7825
2022-10-01T19:52:06.946Z,998.8326
2022-10-01T19:57:19.385Z,999.0575
2022-10-01T20:02:31.691Z,999.0109
2022-10-01T20:07:43.936Z,999.0234
2022-10-01T20:12:56.146Z,999.1692
2022-10-01T20:18:08.276Z,999.2327
2022-10-01T20:23:20.350Z,999.3352
2022-10-01T20:28:32.974Z,999.3791
2022-10-01T20:33:45.169Z,999.6223
2022-10-01T20:38:57.660Z,999.6573
2022-10-01T20:44:11.133Z,999.8205
2022-10-01T20:44:26.462Z,999.7512
2022-10-01T20:49:36.350Z,999.8061
2022-10-01T20:54:48.376Z,999.822
2022-10-01T21:00:00.711Z,999.9397
2022-10-01T21:05:12.930Z,999.9839
2022-10-01T21:10:25.310Z,1000.016
2022-10-01T21:15:37.547Z,1000.177
2022-10-01T21:20:49.878Z,1000.179
2022-10-01T21:26:02.162Z,1000.421
2022-10-01T21:31:14.619Z,1000.337
2022-10-01T21:36:26.862Z,1000.544
2022-10-01T21:41:39.000Z,1000.5
2022-10-01T21:46:51.378Z,1000.559
2022-10-01T21:52:03.631Z,1000.727
2022-10-01T21:57:15.987Z,1000.871
2022-10-01T22:02:28.535Z,1000.885
2022-10-01T22:07:40.690Z,1001.013
2022-10-01T22:12:52.980Z,1001.131
2022-10-01T22:18:05.224Z,1001.229
2022-10-01T22:23:17.671Z,1001.242
2022-10-01T22:28:30.248Z,1001.354
2022-10-01T22:33:42.267Z,1001.411
2022-10-01T22:38:54.612Z,1001.521
2022-10-01T22:44:07.031Z,1001.676
2022-10-01T22:49:19.353Z,1001.82
2022-10-01T22:54:31.764Z,1001.746
2022-10-01T22:59:47.607Z,1001.9
2022-10-01T23:05:00.382Z,1001.968
2022-10-01T23:10:12.581Z,1001.967
2022-10-01T23:15:25.057Z,1002.086
2022-10-01T23:20:37.286Z,1002.165
2022-10-01T23:25:49.634Z,1002.097
2022-10-01T23:31:01.850Z,1002.176
2022-10-01T23:36:14.678Z,1002.238
2022-10-01T23:41:27.013Z,1002.304
2022-10-01T23:46:39.289Z,1002.402
2022-10-01T23:51:51.526Z,1002.508
2022-10-01T23:57:03.582Z,1002.536
